createdAt,value
2019-03-25T00:02:15.211Z,11.93
2019-03-25T00:04:45.662Z,11.63
2019-03-25T00:07:16.142Z,12.23
2019-03-25T00:09:46.712Z,11.80
2019-03-25T00:12:17.301Z,11.73
2019-03-25T00:14:47.897Z,12.67
2019-03-25T00:17:18.477Z,12.17
2019-03-25T00:19:49.012Z,12.60
2019-03-25T00:22:19.700Z,11.90
2019-03-25T00:24:50.289Z,11.43
2019-03-25T00:27:20.828Z,12.70
2019-03-25T00:29:51.463Z,12.67
2019-03-25T00:32:21.976Z,11.63
2019-03-25T00:34:52.443Z,11.97
2019-03-25T00:37:23.161Z,11.83
2019-03-25T00:39:53.838Z,11.37
2019-03-25T00:42:24.283Z,11.07
2019-03-25T00:44:54.884Z,12.20
2019-03-25T00:47:25.608Z,11.43
2019-03-25T00:49:56.295Z,10.90
2019-03-25T00:52:26.878Z,10.67
2019-03-25T00:54:57.510Z,11.47
2019-03-25T00:57:28.069Z,11.07
2019-03-25T00:59:58.746Z,11.60
2019-03-25T01:02:29.519Z,11.30
2019-03-25T01:05:00.048Z,11.33
2019-03-25T01:07:30.636Z,11.63
2019-03-25T01:10:01.387Z,11.17
2019-03-25T01:12:32.127Z,11.53
2019-03-25T01:15:02.679Z,11.07
2019-03-25T01:17:33.183Z,10.43
2019-03-25T01:20:04.037Z,10.73
2019-03-25T01:22:34.569Z,10.67
2019-03-25T01:25:05.413Z,10.90
2019-03-25T01:27:35.907Z,10.30
2019-03-25T01:30:07.087Z,11.43
2019-03-25T01:32:37.909Z,10.20
2019-03-25T01:35:08.482Z,10.67
2019-03-25T01:37:39.177Z,10.83
2019-03-25T01:40:10.227Z,10.33
2019-03-25T01:42:40.749Z,10.10
2019-03-25T01:45:11.362Z,11.03
2019-03-25T01:47:42.123Z,10.70
2019-03-25T01:50:12.866Z,10.67
2019-03-25T01:52:44.422Z,11.33
2019-03-25T01:55:14.941Z,11.03
2019-03-25T01:57:45.418Z,10.47
2019-03-25T02:00:16.266Z,10.83
2019-03-25T02:02:47.046Z,11.67
2019-03-25T02:05:17.590Z,9.93
2019-03-25T02:07:48.213Z,10.27
2019-03-25T02:10:18.850Z,10.30
2019-03-25T02:12:49.307Z,9.97
2019-03-25T02:15:19.868Z,10.03
2019-03-25T02:17:50.432Z,10.60
2019-03-25T02:20:26.405Z,10.37
2019-03-25T02:22:53.493Z,9.90
2019-03-25T02:25:25.672Z,9.60
2019-03-25T02:27:56.279Z,9.90
2019-03-25T02:30:26.948Z,9.33
2019-03-25T02:32:57.615Z,9.43
2019-03-25T02:35:28.117Z,9.33
2019-03-25T02:37:58.601Z,9.00
2019-03-25T02:40:29.044Z,8.80
2019-03-25T02:42:59.750Z,9.10
2019-03-25T02:45:30.265Z,9.00
2019-03-25T02:48:00.696Z,8.43
2019-03-25T02:50:31.363Z,9.37
2019-03-25T02:53:01.938Z,8.53
2019-03-25T02:55:41.638Z,8.20
2019-03-25T02:58:04.715Z,8.13
2019-03-25T03:00:39.107Z,8.33
2019-03-25T03:03:09.956Z,7.90
2019-03-25T03:05:40.504Z,8.10
2019-03-25T03:08:11.199Z,8.20
2019-03-25T03:10:41.910Z,8.00
2019-03-25T03:13:12.361Z,8.50
2019-03-25T03:15:42.945Z,8.53
2019-03-25T03:18:13.464Z,8.50
2019-03-25T03:20:43.996Z,8.07
2019-03-25T03:23:14.486Z,9.00
2019-03-25T03:25:56.332Z,8.83
2019-03-25T03:28:17.093Z,9.13
2019-03-25T03:30:47.685Z,8.53
2019-03-25T03:33:18.154Z,7.93
2019-03-25T03:35:48.559Z,8.33
2019-03-25T03:38:19.052Z,8.60
2019-03-25T03:40:49.775Z,8.53
2019-03-25T03:43:20.252Z,8.60
2019-03-25T03:45:50.827Z,8.70
2019-03-25T03:48:21.355Z,7.70
2019-03-25T03:50:52.015Z,8.60
2019-03-25T03:53:22.822Z,9.13
2019-03-25T03:55:53.897Z,8.73
2019-03-25T03:58:26.602Z,9.10
2019-03-25T04:00:57.158Z,8.20
2019-03-25T04:03:27.692Z,8.57
2019-03-25T04:05:58.232Z,9.03
2019-03-25T04:08:28.798Z,9.27
2019-03-25T04:10:59.410Z,9.03
2019-03-25T04:13:29.951Z,9.40
2019-03-25T04:16:01.633Z,9.70
2019-03-25T04:18:32.374Z,10.23
2019-03-25T04:21:03.072Z,9.93
2019-03-25T04:23:33.640Z,9.03
2019-03-25T04:26:04.146Z,9.90
2019-03-25T04:28:34.790Z,9.70
2019-03-25T04:31:05.561Z,10.70
2019-03-25T04:33:36.010Z,9.97
2019-03-25T04:36:06.723Z,9.37
2019-03-25T04:38:37.170Z,10.83
2019-03-25T04:41:07.973Z,10.10
2019-03-25T04:43:38.490Z,9.70
2019-03-25T04:46:09.098Z,9.90
2019-03-25T04:48:39.740Z,10.13
2019-03-25T04:51:10.439Z,9.70
2019-03-25T04:53:40.878Z,9.83
2019-03-25T04:56:11.649Z,10.40
2019-03-25T04:58:42.249Z,10.50
2019-03-25T05:01:12.911Z,10.03
2019-03-25T05:03:43.522Z,9.80
2019-03-25T05:06:14.169Z,9.77
2019-03-25T05:08:44.696Z,10.33
2019-03-25T05:11:15.318Z,9.60
2019-03-25T05:13:45.753Z,9.87
2019-03-25T05:16:18.568Z,9.73
2019-03-25T05:18:48.528Z,9.90
2019-03-25T05:21:19.000Z,10.60
2019-03-25T05:23:49.467Z,9.90
2019-03-25T05:26:19.987Z,11.30
2019-03-25T05:28:50.563Z,10.40
2019-03-25T05:31:21.122Z,9.80
2019-03-25T05:33:51.665Z,9.57
2019-03-25T05:36:22.218Z,9.57
2019-03-25T05:38:52.660Z,9.93
2019-03-25T05:41:23.262Z,9.90
2019-03-25T05:43:53.656Z,9.83
2019-03-25T05:46:24.144Z,9.00
2019-03-25T05:48:54.663Z,9.03
2019-03-25T05:51:25.119Z,8.10
2019-03-25T05:53:55.641Z,8.30
2019-03-25T05:56:26.202Z,7.93
2019-03-25T05:58:56.797Z,7.70
2019-03-25T06:01:27.547Z,8.07
2019-03-25T06:03:58.046Z,7.10
2019-03-25T06:06:28.547Z,7.93
2019-03-25T06:08:59.066Z,7.67
2019-03-25T06:11:29.628Z,7.33
2019-03-25T06:14:00.246Z,6.90
2019-03-25T06:16:30.745Z,7.43
2019-03-25T06:19:01.346Z,6.93
2019-03-25T06:21:31.807Z,7.50
2019-03-25T06:24:02.506Z,8.00
2019-03-25T06:26:32.953Z,7.70
2019-03-25T06:29:03.617Z,8.13
2019-03-25T06:31:34.235Z,7.70
2019-03-25T06:34:04.897Z,8.10
2019-03-25T06:36:35.486Z,7.40
2019-03-25T06:39:07.398Z,7.57
2019-03-25T06:41:37.970Z,7.50
2019-03-25T06:44:08.406Z,8.13
2019-03-25T06:46:38.894Z,8.03
2019-03-25T06:49:09.439Z,8.43
2019-03-25T06:51:39.922Z,8.30
2019-03-25T06:54:10.376Z,8.27
2019-03-25T06:56:40.875Z,9.10
2019-03-25T06:59:11.495Z,9.10
2019-03-25T07:01:42.081Z,9.17
2019-03-25T07:04:12.602Z,9.37
2019-03-25T07:06:43.186Z,9.20
2019-03-25T07:09:13.738Z,9.70
2019-03-25T07:11:45.129Z,8.93
2019-03-25T07:14:16.358Z,9.57
2019-03-25T07:16:46.998Z,9.40
2019-03-25T07:19:17.438Z,9.27
2019-03-25T07:21:48.139Z,8.60
2019-03-25T07:24:18.631Z,9.23
2019-03-25T07:26:49.409Z,9.37
2019-03-25T07:29:19.874Z,9.23
2019-03-25T07:31:50.330Z,9.00
2019-03-25T07:34:20.854Z,9.30
2019-03-25T07:36:51.289Z,9.27
2019-03-25T07:39:21.818Z,9.63
2019-03-25T07:41:52.322Z,8.97
2019-03-25T07:44:22.927Z,9.10
2019-03-25T07:46:53.554Z,8.87
2019-03-25T07:49:24.092Z,8.33
2019-03-25T07:51:54.694Z,9.00
2019-03-25T07:54:25.215Z,8.17
2019-03-25T07:56:55.766Z,8.60
2019-03-25T07:59:26.309Z,9.33
2019-03-25T08:01:56.982Z,8.73
2019-03-25T08:04:27.644Z,8.03
2019-03-25T08:06:58.287Z,8.43
2019-03-25T08:09:28.751Z,8.00
2019-03-25T08:11:59.206Z,8.27
2019-03-25T08:14:29.833Z,7.73
2019-03-25T08:17:00.444Z,7.57
2019-03-25T08:19:30.941Z,8.03
2019-03-25T08:22:01.416Z,7.97
2019-03-25T08:24:31.910Z,7.73
2019-03-25T08:27:02.571Z,7.97
2019-03-25T08:29:33.094Z,7.13
2019-03-25T08:32:03.668Z,7.07
2019-03-25T08:34:34.486Z,7.37
2019-03-25T08:37:05.026Z,8.00
2019-03-25T08:39:35.483Z,7.77
2019-03-25T08:42:06.234Z,7.87
2019-03-25T08:44:36.688Z,7.30
2019-03-25T08:47:07.277Z,7.80
2019-03-25T08:49:37.877Z,7.27
2019-03-25T08:52:08.458Z,7.47
2019-03-25T08:54:39.164Z,6.97
2019-03-25T08:57:09.895Z,7.43
2019-03-25T08:59:40.535Z,7.87
2019-03-25T09:02:11.108Z,7.33
2019-03-25T09:04:41.569Z,7.53
2019-03-25T09:07:12.150Z,7.40
2019-03-25T09:09:42.688Z,7.70
2019-03-25T09:12:13.235Z,6.93
2019-03-25T09:14:43.791Z,7.23
2019-03-25T09:17:14.402Z,7.43
2019-03-25T09:19:45.097Z,6.80
2019-03-25T09:22:15.762Z,7.97
2019-03-25T09:24:46.392Z,7.50
2019-03-25T09:27:16.992Z,7.40
2019-03-25T09:29:47.526Z,8.83
2019-03-25T09:32:18.317Z,7.73
2019-03-25T09:34:48.774Z,8.57
2019-03-25T09:37:19.290Z,7.83
2019-03-25T09:39:49.915Z,7.87
2019-03-25T09:42:20.362Z,7.80
2019-03-25T09:44:51.009Z,7.70
2019-03-25T09:47:21.502Z,7.70
2019-03-25T09:49:52.047Z,7.90
2019-03-25T09:52:22.723Z,7.87
2019-03-25T09:54:53.150Z,7.53
2019-03-25T09:57:23.743Z,8.57
2019-03-25T09:59:54.393Z,8.17
2019-03-25T10:02:25.525Z,7.53
2019-03-25T10:04:56.076Z,7.80
2019-03-25T10:07:28.410Z,7.73
2019-03-25T10:09:58.988Z,8.20
2019-03-25T10:12:29.584Z,8.33
2019-03-25T10:15:00.127Z,8.70
2019-03-25T10:17:30.734Z,8.20
2019-03-25T10:20:01.367Z,7.83
2019-03-25T10:22:31.801Z,7.67
2019-03-25T10:25:02.561Z,8.10
2019-03-25T10:27:33.006Z,7.93
2019-03-25T10:30:03.889Z,7.70
2019-03-25T10:32:34.350Z,8.10
2019-03-25T10:35:05.046Z,8.13
2019-03-25T10:37:35.811Z,7.50
2019-03-25T10:40:07.376Z,8.23
2019-03-25T10:42:37.969Z,8.20
2019-03-25T10:45:08.833Z,7.73
2019-03-25T10:47:39.493Z,7.57
2019-03-25T10:50:10.511Z,8.27
2019-03-25T10:52:41.091Z,7.90
2019-03-25T10:55:11.830Z,7.53
2019-03-25T10:57:42.393Z,7.33
2019-03-25T11:00:14.015Z,7.77
2019-03-25T11:02:44.712Z,8.60
2019-03-25T11:05:15.631Z,7.70
2019-03-25T11:07:46.337Z,7.20
2019-03-25T11:10:17.386Z,7.67
2019-03-25T11:12:48.109Z,8.43
2019-03-25T11:15:19.053Z,8.03
2019-03-25T11:17:49.617Z,7.00
2019-03-25T11:20:20.331Z,8.17
2019-03-25T11:22:50.928Z,7.60
2019-03-25T11:25:21.454Z,7.30
2019-03-25T11:27:54.520Z,7.63
2019-03-25T11:31:06.437Z,7.33
2019-03-25T11:33:37.139Z,7.43
2019-03-25T11:36:07.762Z,7.53
2019-03-25T11:38:38.448Z,7.70
2019-03-25T11:41:09.166Z,7.60
2019-03-25T11:43:39.669Z,7.83
2019-03-25T11:46:10.324Z,7.70
2019-03-25T11:48:41.104Z,6.90
2019-03-25T11:51:11.689Z,6.33
2019-03-25T11:53:42.282Z,6.73
2019-03-25T11:56:12.950Z,6.10
2019-03-25T11:58:44.647Z,5.67
2019-03-25T12:01:15.429Z,5.53
2019-03-25T12:03:46.064Z,5.17
2019-03-25T12:06:16.722Z,5.43
2019-03-25T12:08:47.416Z,4.30
2019-03-25T12:11:18.034Z,4.60
2019-03-25T12:13:48.576Z,4.53
2019-03-25T12:16:20.268Z,3.40
2019-03-25T12:18:50.790Z,3.53
2019-03-25T12:21:21.248Z,3.60
2019-03-25T12:23:51.761Z,3.63
2019-03-25T12:26:22.213Z,3.70
2019-03-25T12:28:52.910Z,3.87
2019-03-25T12:31:23.487Z,3.80
2019-03-25T12:33:53.961Z,3.77
2019-03-25T12:36:24.647Z,3.50
2019-03-25T12:38:55.207Z,3.37
2019-03-25T12:41:25.677Z,3.30
2019-03-25T12:43:56.181Z,3.53
2019-03-25T12:46:26.781Z,3.30
2019-03-25T12:48:57.386Z,3.50
2019-03-25T12:51:28.039Z,3.17
2019-03-25T12:53:58.714Z,3.70
2019-03-25T12:56:29.121Z,3.63
2019-03-25T12:58:59.586Z,3.40
2019-03-25T13:01:30.270Z,3.60
2019-03-25T13:04:00.782Z,3.60
2019-03-25T13:06:31.295Z,3.50
2019-03-25T13:09:01.877Z,3.50
2019-03-25T13:11:32.442Z,3.17
2019-03-25T13:14:02.935Z,3.17
2019-03-25T13:16:33.435Z,2.60
2019-03-25T13:19:04.316Z,2.77
2019-03-25T13:21:34.742Z,3.03
2019-03-25T13:24:05.304Z,3.00
2019-03-25T13:26:35.895Z,3.33
2019-03-25T13:29:06.557Z,2.80
2019-03-25T13:31:37.066Z,2.97
2019-03-25T13:34:07.561Z,3.30
2019-03-25T13:36:38.104Z,3.10
2019-03-25T13:39:08.741Z,2.90
2019-03-25T13:41:39.395Z,2.73
2019-03-25T13:44:09.932Z,3.00
2019-03-25T13:46:40.455Z,3.00
2019-03-25T13:49:10.963Z,2.70
2019-03-25T13:51:41.446Z,2.93
2019-03-25T13:54:12.114Z,2.90
2019-03-25T13:56:42.612Z,2.53
2019-03-25T13:59:13.286Z,2.80
2019-03-25T14:01:43.844Z,3.00
2019-03-25T14:04:14.433Z,3.10
2019-03-25T14:06:45.141Z,2.80
2019-03-25T14:09:15.620Z,2.90
2019-03-25T14:11:46.234Z,2.70
2019-03-25T14:14:16.772Z,2.70
2019-03-25T14:16:47.285Z,2.90
2019-03-25T14:19:17.813Z,2.73
2019-03-25T14:21:48.528Z,2.90
2019-03-25T14:24:19.093Z,2.87
2019-03-25T14:26:49.663Z,3.20
2019-03-25T14:29:20.277Z,3.10
2019-03-25T14:31:50.740Z,2.47
2019-03-25T14:34:21.301Z,3.20
2019-03-25T14:36:51.877Z,2.80
2019-03-25T14:39:22.635Z,3.10
2019-03-25T14:41:53.262Z,2.93
2019-03-25T14:44:23.988Z,2.47
2019-03-25T14:46:54.537Z,2.80
2019-03-25T14:49:25.325Z,2.70
2019-03-25T14:51:56.067Z,3.23
2019-03-25T14:54:26.534Z,2.73
2019-03-25T14:56:57.146Z,2.90
2019-03-25T14:59:27.713Z,3.10
2019-03-25T15:01:58.527Z,3.17
2019-03-25T15:04:29.148Z,2.73
2019-03-25T15:06:59.591Z,2.60
2019-03-25T15:09:30.104Z,3.00
2019-03-25T15:12:00.870Z,2.83
2019-03-25T15:14:33.333Z,2.70
2019-03-25T15:17:03.727Z,2.87
2019-03-25T15:19:34.214Z,2.70
2019-03-25T15:22:05.027Z,2.90
2019-03-25T15:24:35.627Z,2.70
2019-03-25T15:27:06.371Z,2.40
2019-03-25T15:29:36.884Z,2.80
2019-03-25T15:32:07.637Z,2.77
2019-03-25T15:34:38.272Z,2.60
2019-03-25T15:37:08.785Z,2.60
2019-03-25T15:39:46.717Z,2.60
2019-03-25T15:42:11.480Z,2.40
2019-03-25T15:44:41.970Z,2.70
2019-03-25T15:47:12.563Z,3.10
2019-03-25T15:49:43.179Z,3.10
2019-03-25T15:52:13.683Z,2.90
2019-03-25T15:54:44.224Z,2.90
2019-03-25T15:57:14.933Z,2.70
2019-03-25T15:59:45.535Z,2.73
2019-03-25T16:02:16.155Z,2.63
2019-03-25T16:04:46.723Z,2.90
2019-03-25T16:07:17.347Z,2.80
2019-03-25T16:09:47.908Z,3.20
2019-03-25T16:12:18.457Z,2.93
2019-03-25T16:14:49.198Z,2.73
2019-03-25T16:17:19.738Z,3.17
2019-03-25T16:19:50.389Z,3.80
2019-03-25T16:22:20.987Z,3.87
2019-03-25T16:24:51.500Z,4.73
2019-03-25T16:27:22.014Z,7.50
2019-03-25T16:29:52.582Z,5.70
2019-03-25T16:32:23.041Z,6.27
2019-03-25T16:34:53.735Z,5.70
2019-03-25T16:37:24.355Z,5.13
2019-03-25T16:39:54.934Z,5.13
2019-03-25T16:42:25.457Z,5.23
2019-03-25T16:44:56.012Z,4.97
2019-03-25T16:47:26.605Z,5.83
2019-03-25T16:49:57.083Z,5.57
2019-03-25T16:52:27.632Z,6.33
2019-03-25T16:54:58.076Z,5.03
2019-03-25T16:57:28.608Z,5.57
2019-03-25T16:59:59.251Z,5.27
2019-03-25T17:02:30.345Z,5.87
2019-03-25T17:05:01.095Z,5.40
2019-03-25T17:07:31.703Z,6.27
2019-03-25T17:10:02.246Z,5.37
2019-03-25T17:12:32.851Z,5.47
2019-03-25T17:15:03.658Z,4.43
2019-03-25T17:17:34.327Z,4.67
2019-03-25T17:20:05.027Z,4.60
2019-03-25T17:22:35.525Z,4.50
2019-03-25T17:25:06.455Z,4.93
2019-03-25T17:27:36.924Z,4.53
2019-03-25T17:30:10.219Z,4.27
2019-03-25T17:32:40.708Z,5.33
2019-03-25T17:35:11.580Z,4.23
2019-03-25T17:37:42.233Z,4.43
2019-03-25T17:40:12.963Z,4.30
2019-03-25T17:42:43.521Z,4.13
2019-03-25T17:45:15.051Z,3.97
2019-03-25T17:47:45.477Z,4.00
2019-03-25T17:50:16.271Z,3.87
2019-03-25T17:52:46.951Z,4.00
2019-03-25T17:55:18.631Z,4.03
2019-03-25T17:57:49.184Z,4.17
2019-03-25T18:00:37.305Z,4.17
2019-03-25T18:03:11.185Z,4.40
2019-03-25T18:05:40.098Z,4.50
2019-03-25T18:08:10.718Z,4.43
2019-03-25T18:10:41.326Z,4.10
2019-03-25T18:13:22.002Z,4.33
2019-03-25T18:15:43.932Z,4.40
2019-03-25T18:18:14.529Z,3.80
2019-03-25T18:20:45.034Z,4.10
2019-03-25T18:23:15.495Z,4.40
2019-03-25T18:25:45.961Z,4.50
2019-03-25T18:28:16.457Z,4.63
2019-03-25T18:30:46.980Z,4.10
2019-03-25T18:33:17.499Z,4.47
2019-03-25T18:35:48.095Z,4.87
2019-03-25T18:38:18.802Z,4.27
2019-03-25T18:40:49.311Z,6.37
2019-03-25T18:43:20.073Z,4.90
2019-03-25T18:45:50.627Z,5.60
2019-03-25T18:48:21.286Z,4.70
2019-03-25T18:50:51.877Z,6.10
2019-03-25T18:53:22.373Z,8.93
2019-03-25T18:55:53.114Z,7.90
2019-03-25T18:58:23.763Z,9.73
2019-03-25T19:00:54.502Z,8.47
2019-03-25T19:03:25.252Z,8.50
2019-03-25T19:05:55.955Z,8.37
2019-03-25T19:08:26.951Z,4.93
2019-03-25T19:10:57.575Z,5.10
2019-03-25T19:13:28.207Z,4.43
2019-03-25T19:15:58.632Z,4.70
2019-03-25T19:18:29.233Z,4.57
2019-03-25T19:20:59.906Z,5.20
2019-03-25T19:23:30.469Z,4.23
2019-03-25T19:26:00.931Z,6.90
2019-03-25T19:28:31.493Z,7.40
2019-03-25T19:31:02.078Z,6.70
2019-03-25T19:33:32.856Z,4.60
2019-03-25T19:36:03.314Z,4.40
2019-03-25T19:38:33.907Z,4.70
2019-03-25T19:41:04.453Z,3.63
2019-03-25T19:43:34.976Z,3.30
2019-03-25T19:46:05.723Z,3.50
2019-03-25T19:48:36.295Z,7.40
2019-03-25T19:51:07.071Z,8.27
2019-03-25T19:53:37.885Z,7.40
2019-03-25T19:56:08.700Z,6.17
2019-03-25T19:58:39.188Z,6.60
2019-03-25T20:01:09.962Z,6.33
2019-03-25T20:03:40.565Z,6.13
2019-03-25T20:06:11.453Z,5.90
2019-03-25T20:08:42.486Z,5.43
2019-03-25T20:11:13.249Z,4.90
2019-03-25T20:13:43.944Z,6.37
2019-03-25T20:16:14.722Z,7.10
2019-03-25T20:18:45.187Z,7.17
2019-03-25T20:21:15.969Z,6.83
2019-03-25T20:23:46.657Z,7.23
2019-03-25T20:26:17.201Z,5.27
2019-03-25T20:28:47.921Z,7.90
2019-03-25T20:31:18.706Z,5.83
2019-03-25T20:33:50.783Z,5.50
2019-03-25T20:36:21.752Z,5.03
2019-03-25T20:38:53.250Z,9.27
2019-03-25T20:41:24.298Z,5.53
2019-03-25T20:43:54.963Z,5.13
2019-03-25T20:46:25.806Z,4.37
2019-03-25T20:48:57.245Z,4.73
2019-03-25T20:51:28.366Z,6.70
2019-03-25T20:54:00.375Z,5.93
2019-03-25T20:56:32.245Z,5.20
2019-03-25T20:59:03.284Z,4.30
2019-03-25T21:01:34.411Z,3.20
2019-03-25T21:04:05.684Z,3.10
2019-03-25T21:06:37.569Z,3.00
2019-03-25T21:09:10.226Z,3.73
2019-03-25T21:11:43.619Z,4.50
2019-03-25T21:14:15.349Z,2.80
2019-03-25T21:16:46.807Z,7.67
2019-03-25T21:19:17.810Z,3.13
2019-03-25T21:21:48.902Z,3.10
2019-03-25T21:24:19.993Z,2.70
2019-03-25T21:26:50.752Z,3.30
2019-03-25T21:29:22.144Z,2.27
2019-03-25T21:31:53.433Z,2.93
2019-03-25T21:34:24.630Z,2.63
2019-03-25T21:36:56.050Z,3.83
2019-03-25T21:39:27.548Z,4.03
2019-03-25T21:41:58.709Z,5.87
2019-03-25T21:44:29.688Z,2.90
2019-03-25T21:47:00.791Z,2.83
2019-03-25T21:49:31.683Z,3.23
2019-03-25T21:52:02.222Z,3.10
2019-03-25T21:54:32.744Z,3.10
2019-03-25T21:57:04.101Z,2.70
2019-03-25T21:59:34.609Z,2.70
2019-03-25T22:02:05.197Z,2.93
2019-03-25T22:04:35.818Z,2.37
2019-03-25T22:07:06.536Z,5.00
2019-03-25T22:09:37.116Z,4.57
2019-03-25T22:12:07.638Z,3.07
2019-03-25T22:14:38.390Z,3.20
2019-03-25T22:17:08.961Z,2.90
2019-03-25T22:19:39.578Z,2.60
2019-03-25T22:22:10.151Z,3.60
2019-03-25T22:24:40.632Z,2.90
2019-03-25T22:27:11.450Z,2.97
2019-03-25T22:29:42.113Z,3.40
2019-03-25T22:32:12.527Z,5.77
2019-03-25T22:34:42.995Z,4.33
2019-03-25T22:37:13.619Z,3.20
2019-03-25T22:39:44.235Z,3.03
2019-03-25T22:42:14.659Z,4.10
2019-03-25T22:44:45.369Z,3.20
2019-03-25T22:47:15.843Z,5.00
2019-03-25T22:49:46.414Z,3.20
2019-03-25T22:52:16.880Z,3.83
2019-03-25T22:54:47.542Z,2.90
2019-03-25T22:57:18.121Z,2.60
2019-03-25T22:59:48.576Z,2.13
2019-03-25T23:02:19.223Z,2.30
2019-03-25T23:04:49.721Z,2.80
2019-03-25T23:07:20.309Z,2.10
2019-03-25T23:09:50.957Z,1.93
2019-03-25T23:12:21.487Z,2.30
2019-03-25T23:14:53.007Z,2.00
2019-03-25T23:17:23.518Z,2.13
2019-03-25T23:19:54.129Z,2.83
2019-03-25T23:22:24.895Z,2.20
2019-03-25T23:24:55.318Z,3.50
2019-03-25T23:27:26.167Z,1.90
2019-03-25T23:29:56.672Z,3.33
2019-03-25T23:32:27.140Z,2.33
2019-03-25T23:34:57.627Z,2.20
2019-03-25T23:37:28.105Z,2.63
2019-03-25T23:39:58.623Z,2.30
2019-03-25T23:42:29.165Z,2.30
2019-03-25T23:44:59.575Z,2.80
2019-03-25T23:47:30.030Z,1.70
2019-03-25T23:50:00.618Z,2.03
2019-03-25T23:52:31.069Z,1.83
2019-03-25T23:55:01.565Z,2.50
2019-03-25T23:57:32.209Z,2.97
